sensor_id;sensor_type;location;lat;lon;timestamp;temperature;humidity
21799;DHT22;24973;47.178;15.316;2023-07-31T10:41:28;29.70;88.60
21799;DHT22;24973;47.178;15.316;2023-07-31T10:44:18;29.60;90.00
21799;DHT22;24973;47.178;15.316;2023-07-31T10:47:09;29.20;88.60
21799;DHT22;24973;47.178;15.316;2023-07-31T10:50:14;28.40;87.20
21799;DHT22;24973;47.178;15.316;2023-07-31T10:53:06;27.90;89.90
21799;DHT22;24973;47.178;15.316;2023-07-31T10:55:58;27.50;90.00
21799;DHT22;24973;47.178;15.316;2023-07-31T10:59:00;27.20;90.40
21799;DHT22;24973;47.178;15.316;2023-07-31T11:01:51;27.10;91.00
21799;DHT22;24973;47.178;15.316;2023-07-31T11:04:41;27.00;90.60
21799;DHT22;24973;47.178;15.316;2023-07-31T11:07:49;27.00;91.60
21799;DHT22;24973;47.178;15.316;2023-07-31T11:10:38;27.00;91.20
21799;DHT22;24973;47.178;15.316;2023-07-31T11:13:28;26.90;92.00
21799;DHT22;24973;47.178;15.316;2023-07-31T11:16:18;26.70;91.60
21799;DHT22;24973;47.178;15.316;2023-07-31T11:19:08;26.40;92.50
21799;DHT22;24973;47.178;15.316;2023-07-31T11:21:57;26.30;93.80
21799;DHT22;24973;47.178;15.316;2023-07-31T11:24:48;26.10;94.40
21799;DHT22;24973;47.178;15.316;2023-07-31T11:27:39;26.00;94.30
21799;DHT22;24973;47.178;15.316;2023-07-31T11:30:29;25.90;94.30
21799;DHT22;24973;47.178;15.316;2023-07-31T11:33:18;25.80;94.30
21799;DHT22;24973;47.178;15.316;2023-07-31T11:36:10;25.80;94.40
21799;DHT22;24973;47.178;15.316;2023-07-31T11:39:06;25.70;93.80
21799;DHT22;24973;47.178;15.316;2023-07-31T11:42:00;25.60;95.30
21799;DHT22;24973;47.178;15.316;2023-07-31T11:44:49;25.50;96.40
21799;DHT22;24973;47.178;15.316;2023-07-31T11:47:38;25.40;96.40
21799;DHT22;24973;47.178;15.316;2023-07-31T11:50:27;25.40;96.80
21799;DHT22;24973;47.178;15.316;2023-07-31T11:53:19;25.40;97.10
21799;DHT22;24973;47.178;15.316;2023-07-31T11:56:18;25.30;97.30
21799;DHT22;24973;47.178;15.316;2023-07-31T11:59:38;25.40;97.50
21799;DHT22;24973;47.178;15.316;2023-07-31T12:02:27;26.00;98.40
21799;DHT22;24973;47.178;15.316;2023-07-31T12:05:16;26.40;97.10
21799;DHT22;24973;47.178;15.316;2023-07-31T12:08:09;26.50;96.70
21799;DHT22;24973;47.178;15.316;2023-07-31T12:11:03;26.40;97.00
21799;DHT22;24973;47.178;15.316;2023-07-31T12:13:53;26.40;97.10
21799;DHT22;24973;47.178;15.316;2023-07-31T12:16:43;26.40;96.80
21799;DHT22;24973;47.178;15.316;2023-07-31T12:19:32;26.40;97.10
21799;DHT22;24973;47.178;15.316;2023-07-31T12:22:22;26.50;97.20
21799;DHT22;24973;47.178;15.316;2023-07-31T12:25:15;26.70;97.60
21799;DHT22;24973;47.178;15.316;2023-07-31T12:28:05;26.90;97.00
21799;DHT22;24973;47.178;15.316;2023-07-31T12:31:00;27.00;96.80
21799;DHT22;24973;47.178;15.316;2023-07-31T12:33:51;27.00;96.70
21799;DHT22;24973;47.178;15.316;2023-07-31T12:36:40;27.00;96.30
21799;DHT22;24973;47.178;15.316;2023-07-31T12:39:31;27.00;96.50
21799;DHT22;24973;47.178;15.316;2023-07-31T12:42:19;26.90;96.50
21799;DHT22;24973;47.178;15.316;2023-07-31T12:45:09;26.80;96.50
21799;DHT22;24973;47.178;15.316;2023-07-31T12:47:58;26.70;96.50
21799;DHT22;24973;47.178;15.316;2023-07-31T12:50:48;26.60;97.30
21799;DHT22;24973;47.178;15.316;2023-07-31T12:53:39;26.30;96.90
21799;DHT22;24973;47.178;15.316;2023-07-31T12:56:28;26.20;97.10
21799;DHT22;24973;47.178;15.316;2023-07-31T12:59:17;25.90;96.70
21799;DHT22;24973;47.178;15.316;2023-07-31T13:02:06;25.70;97.10
21799;DHT22;24973;47.178;15.316;2023-07-31T13:04:55;25.60;97.80
21799;DHT22;24973;47.178;15.316;2023-07-31T13:07:45;25.60;98.20
21799;DHT22;24973;47.178;15.316;2023-07-31T13:10:35;25.40;98.70
21799;DHT22;24973;47.178;15.316;2023-07-31T13:13:24;25.30;99.60
21799;DHT22;24973;47.178;15.316;2023-07-31T13:16:12;25.30;99.90
21799;DHT22;24973;47.178;15.316;2023-07-31T13:19:07;25.30;99.90
21799;DHT22;24973;47.178;15.316;2023-07-31T13:21:55;25.30;99.90
21799;DHT22;24973;47.178;15.316;2023-07-31T13:24:46;25.30;99.90
21799;DHT22;24973;47.178;15.316;2023-07-31T13:27:35;25.40;99.60
21799;DHT22;24973;47.178;15.316;2023-07-31T13:30:25;25.60;99.40
21799;DHT22;24973;47.178;15.316;2023-07-31T13:33:14;25.80;99.40
21799;DHT22;24973;47.178;15.316;2023-07-31T13:36:07;25.80;99.10
21799;DHT22;24973;47.178;15.316;2023-07-31T13:38:56;25.80;99.30
21799;DHT22;24973;47.178;15.316;2023-07-31T13:41:46;26.00;99.60
21799;DHT22;24973;47.178;15.316;2023-07-31T13:44:35;26.90;99.90
21799;DHT22;24973;47.178;15.316;2023-07-31T13:47:24;27.80;99.30
21799;DHT22;24973;47.178;15.316;2023-07-31T13:50:13;28.50;98.80
21799;DHT22;24973;47.178;15.316;2023-07-31T13:53:03;29.40;97.50
21799;DHT22;24973;47.178;15.316;2023-07-31T13:55:52;30.30;96.30
21799;DHT22;24973;47.178;15.316;2023-07-31T13:58:42;30.50;94.30
21799;DHT22;24973;47.178;15.316;2023-07-31T14:01:31;30.40;93.00
21799;DHT22;24973;47.178;15.316;2023-07-31T14:04:20;30.10;93.10
21799;DHT22;24973;47.178;15.316;2023-07-31T14:07:09;30.00;93.70
21799;DHT22;24973;47.178;15.316;2023-07-31T14:09:58;29.70;94.10
21799;DHT22;24973;47.178;15.316;2023-07-31T14:12:47;29.50;94.50
21799;DHT22;24973;47.178;15.316;2023-07-31T14:15:37;29.20;93.60
21799;DHT22;24973;47.178;15.316;2023-07-31T14:18:26;28.90;94.40
21799;DHT22;24973;47.178;15.316;2023-07-31T14:21:15;28.50;95.10
21799;DHT22;24973;47.178;15.316;2023-07-31T14:46:40;28.30;98.40
21799;DHT22;24973;47.178;15.316;2023-07-31T14:49:31;28.60;96.30
21799;DHT22;24973;47.178;15.316;2023-07-31T14:52:20;28.40;96.10
21799;DHT22;24973;47.178;15.316;2023-07-31T14:55:08;28.20;95.80
21799;DHT22;24973;47.178;15.316;2023-07-31T14:57:57;27.80;95.50
21799;DHT22;24973;47.178;15.316;2023-07-31T15:00:46;27.60;96.00
21799;DHT22;24973;47.178;15.316;2023-07-31T15:03:35;27.40;97.30
21799;DHT22;24973;47.178;15.316;2023-07-31T15:06:25;27.10;96.50
21799;DHT22;24973;47.178;15.316;2023-07-31T15:09:14;27.00;96.60
21799;DHT22;24973;47.178;15.316;2023-07-31T15:12:04;27.40;97.10
21799;DHT22;24973;47.178;15.316;2023-07-31T15:14:53;28.20;95.80
21799;DHT22;24973;47.178;15.316;2023-07-31T15:17:42;28.80;94.80
21799;DHT22;24973;47.178;15.316;2023-07-31T15:20:31;29.40;93.30
21799;DHT22;24973;47.178;15.316;2023-07-31T15:23:22;30.10;93.90
21799;DHT22;24973;47.178;15.316;2023-07-31T15:26:13;30.90;93.40
21799;DHT22;24973;47.178;15.316;2023-07-31T15:29:04;31.80;92.40
21799;DHT22;24973;47.178;15.316;2023-07-31T15:31:56;31.90;90.70
21799;DHT22;24973;47.178;15.316;2023-07-31T15:34:45;31.60;90.70
21799;DHT22;24973;47.178;15.316;2023-07-31T15:37:34;31.60;90.80
21799;DHT22;24973;47.178;15.316;2023-07-31T15:40:24;31.30;90.50
21799;DHT22;24973;47.178;15.316;2023-07-31T15:43:13;30.90;90.60
21799;DHT22;24973;47.178;15.316;2023-07-31T15:46:02;30.40;90.40
21799;DHT22;24973;47.178;15.316;2023-07-31T15:48:51;29.80;90.80
21799;DHT22;24973;47.178;15.316;2023-07-31T15:51:41;29.30;91.80
21799;DHT22;24973;47.178;15.316;2023-07-31T15:54:29;28.90;93.20
21799;DHT22;24973;47.178;15.316;2023-07-31T15:57:20;28.40;94.20
21799;DHT22;24973;47.178;15.316;2023-07-31T16:00:09;28.00;95.30
21799;DHT22;24973;47.178;15.316;2023-07-31T16:02:59;27.50;97.00
21799;DHT22;24973;47.178;15.316;2023-07-31T16:05:48;27.10;97.70
21799;DHT22;24973;47.178;15.316;2023-07-31T16:08:37;26.80;98.40
21799;DHT22;24973;47.178;15.316;2023-07-31T16:11:28;26.40;99.90
21799;DHT22;24973;47.178;15.316;2023-07-31T16:14:18;25.90;99.90
21799;DHT22;24973;47.178;15.316;2023-07-31T16:17:07;25.60;99.90
21799;DHT22;24973;47.178;15.316;2023-07-31T16:19:56;25.30;99.90
21799;DHT22;24973;47.178;15.316;2023-07-31T16:22:45;25.10;99.90
21799;DHT22;24973;47.178;15.316;2023-07-31T16:25:34;25.00;99.90
21799;DHT22;24973;47.178;15.316;2023-07-31T16:28:23;24.90;99.90
21799;DHT22;24973;47.178;15.316;2023-07-31T16:31:13;24.70;99.90
21799;DHT22;24973;47.178;15.316;2023-07-31T16:34:02;24.70;99.90
21799;DHT22;24973;47.178;15.316;2023-07-31T16:36:51;24.70;99.90
21799;DHT22;24973;47.178;15.316;2023-07-31T16:39:40;24.70;99.90
21799;DHT22;24973;47.178;15.316;2023-07-31T16:42:33;24.60;99.90
21799;DHT22;24973;47.178;15.316;2023-07-31T16:45:22;24.40;99.90
21799;DHT22;24973;47.178;15.316;2023-07-31T16:48:12;24.10;99.90
21799;DHT22;24973;47.178;15.316;2023-07-31T16:51:01;23.60;99.90
21799;DHT22;24973;47.178;15.316;2023-07-31T16:53:52;23.50;99.90
21799;DHT22;24973;47.178;15.316;2023-07-31T16:56:41;23.30;99.90
21799;DHT22;24973;47.178;15.316;2023-07-31T16:59:39;23.20;99.90
21799;DHT22;24973;47.178;15.316;2023-07-31T17:02:28;23.30;99.90
21799;DHT22;24973;47.178;15.316;2023-07-31T17:05:18;23.40;99.90
21799;DHT22;24973;47.178;15.316;2023-07-31T17:08:07;22.20;99.90
21799;DHT22;24973;47.178;15.316;2023-07-31T17:10:56;23.60;99.90
21799;DHT22;24973;47.178;15.316;2023-07-31T17:13:45;23.40;99.90
21799;DHT22;24973;47.178;15.316;2023-07-31T17:16:34;23.40;99.90
21799;DHT22;24973;47.178;15.316;2023-07-31T17:19:23;23.30;99.90
21799;DHT22;24973;47.178;15.316;2023-07-31T17:22:14;23.20;99.90
21799;DHT22;24973;47.178;15.316;2023-07-31T17:25:04;23.20;99.90
21799;DHT22;24973;47.178;15.316;2023-07-31T17:27:53;23.00;99.90
21799;DHT22;24973;47.178;15.316;2023-07-31T17:30:42;23.00;99.90
21799;DHT22;24973;47.178;15.316;2023-07-31T17:33:31;23.10;99.90
21799;DHT22;24973;47.178;15.316;2023-07-31T17:36:20;23.20;99.90
21799;DHT22;24973;47.178;15.316;2023-07-31T17:39:10;23.20;99.90
21799;DHT22;24973;47.178;15.316;2023-07-31T17:41:59;23.20;99.90
21799;DHT22;24973;47.178;15.316;2023-07-31T17:44:48;23.10;99.90
21799;DHT22;24973;47.178;15.316;2023-07-31T17:47:36;23.10;99.90
21799;DHT22;24973;47.178;15.316;2023-07-31T17:50:25;23.10;99.90
21799;DHT22;24973;47.178;15.316;2023-07-31T17:53:14;23.00;99.90
21799;DHT22;24973;47.178;15.316;2023-07-31T17:56:05;22.90;99.90
21799;DHT22;24973;47.178;15.316;2023-07-31T17:58:54;22.80;99.90
21799;DHT22;24973;47.178;15.316;2023-07-31T18:01:43;22.60;99.90
21799;DHT22;24973;47.178;15.316;2023-07-31T18:04:32;22.50;99.90
21799;DHT22;24973;47.178;15.316;2023-07-31T18:07:21;22.40;99.90
21799;DHT22;24973;47.178;15.316;2023-07-31T18:10:10;22.40;99.90
21799;DHT22;24973;47.178;15.316;2023-07-31T18:13:01;22.30;99.90
21799;DHT22;24973;47.178;15.316;2023-07-31T18:15:49;22.20;99.90
21799;DHT22;24973;47.178;15.316;2023-07-31T18:18:38;22.10;99.90
21799;DHT22;24973;47.178;15.316;2023-07-31T18:21:27;22.10;99.90
21799;DHT22;24973;47.178;15.316;2023-07-31T18:24:19;22.00;99.90
21799;DHT22;24973;47.178;15.316;2023-07-31T18:27:08;21.90;99.90
21799;DHT22;24973;47.178;15.316;2023-07-31T18:29:58;21.90;99.90
21799;DHT22;24973;47.178;15.316;2023-07-31T18:32:47;21.80;99.90
21799;DHT22;24973;47.178;15.316;2023-07-31T18:35:37;21.70;99.90
21799;DHT22;24973;47.178;15.316;2023-07-31T18:38:26;21.60;99.90
21799;DHT22;24973;47.178;15.316;2023-07-31T18:41:19;21.60;99.90
21799;DHT22;24973;47.178;15.316;2023-07-31T18:44:07;21.50;99.90
21799;DHT22;24973;47.178;15.316;2023-07-31T18:46:58;21.50;99.90
21799;DHT22;24973;47.178;15.316;2023-07-31T18:49:46;21.40;99.90
21799;DHT22;24973;47.178;15.316;2023-07-31T18:52:35;21.30;99.90
21799;DHT22;24973;47.178;15.316;2023-07-31T18:55:24;21.20;99.90
21799;DHT22;24973;47.178;15.316;2023-07-31T18:58:13;21.10;99.90
21799;DHT22;24973;47.178;15.316;2023-07-31T19:01:03;21.00;99.90
21799;DHT22;24973;47.178;15.316;2023-07-31T19:03:53;21.00;99.90
21799;DHT22;24973;47.178;15.316;2023-07-31T19:06:42;20.90;99.90
21799;DHT22;24973;47.178;15.316;2023-07-31T19:09:33;20.90;99.90
21799;DHT22;24973;47.178;15.316;2023-07-31T19:12:22;20.90;99.90
21799;DHT22;24973;47.178;15.316;2023-07-31T19:15:11;20.80;99.90
21799;DHT22;24973;47.178;15.316;2023-07-31T19:18:02;20.80;99.90
